createdAt,value
2023-04-24T00:00:06.559Z,10.94
2023-04-24T00:02:35.355Z,10.91
2023-04-24T00:05:04.740Z,10.90
2023-04-24T00:07:32.955Z,10.85
2023-04-24T00:10:01.208Z,10.83
2023-04-24T00:12:31.244Z,10.84
2023-04-24T00:14:59.657Z,10.82
2023-04-24T00:17:27.975Z,10.80
2023-04-24T00:19:59.635Z,10.79
2023-04-24T00:22:27.710Z,10.75
2023-04-24T00:24:56.247Z,10.74
2023-04-24T00:27:24.480Z,10.72
2023-04-24T00:29:53.978Z,10.71
2023-04-24T00:32:22.350Z,10.69
2023-04-24T00:34:51.726Z,10.67
2023-04-24T00:37:20.007Z,10.64
2023-04-24T00:39:48.218Z,10.63
2023-04-24T00:42:16.984Z,10.59
2023-04-24T00:44:45.461Z,10.57
2023-04-24T00:47:15.587Z,10.54
2023-04-24T00:49:44.208Z,10.54
2023-04-24T00:52:13.677Z,10.51
2023-04-24T00:54:42.041Z,10.48
2023-04-24T00:57:10.773Z,10.45
2023-04-24T00:59:40.097Z,10.44
2023-04-24T01:02:08.660Z,10.41
2023-04-24T01:04:39.147Z,10.38
2023-04-24T01:07:10.993Z,10.36
2023-04-24T01:09:40.476Z,10.35
2023-04-24T01:12:09.113Z,10.33
2023-04-24T01:14:37.594Z,10.33
2023-04-24T01:17:05.785Z,10.30
2023-04-24T01:19:34.150Z,10.30
2023-04-24T01:22:05.467Z,10.29
2023-04-24T01:24:35.084Z,10.28
2023-04-24T01:27:03.341Z,10.25
2023-04-24T01:29:31.581Z,10.25
2023-04-24T01:31:59.987Z,10.22
2023-04-24T01:34:28.553Z,10.20
2023-04-24T01:36:57.585Z,10.19
2023-04-24T01:39:26.877Z,10.19
2023-04-24T01:41:56.723Z,10.22
2023-04-24T01:44:25.297Z,10.20
2023-04-24T01:46:55.205Z,10.22
2023-04-24T01:49:23.846Z,10.23
2023-04-24T01:51:52.059Z,10.24
2023-04-24T01:54:20.709Z,10.23
2023-04-24T01:56:49.262Z,10.24
2023-04-24T01:59:20.290Z,10.24
2023-04-24T02:01:48.577Z,10.24
2023-04-24T02:04:17.229Z,10.24
2023-04-24T02:06:45.607Z,10.27
2023-04-24T02:09:13.839Z,10.28
2023-04-24T02:11:42.121Z,10.28
2023-04-24T02:14:10.487Z,10.28
2023-04-24T02:16:41.224Z,10.30
2023-04-24T02:19:09.449Z,10.31
2023-04-24T02:21:37.763Z,10.34
2023-04-24T02:24:06.069Z,10.35
2023-04-24T02:26:34.356Z,10.36
2023-04-24T02:29:02.808Z,10.37
2023-04-24T02:31:31.014Z,10.38
2023-04-24T02:34:00.650Z,10.37
2023-04-24T02:36:28.961Z,10.39
2023-04-24T02:38:57.220Z,10.40
2023-04-24T02:41:25.533Z,10.38
2023-04-24T02:43:53.748Z,10.39
2023-04-24T02:46:22.895Z,10.41
2023-04-24T02:48:51.265Z,10.43
2023-04-24T02:51:20.879Z,10.46
2023-04-24T02:53:49.167Z,10.46
2023-04-24T02:56:17.250Z,10.47
2023-04-24T02:58:45.523Z,10.46
2023-04-24T03:01:13.832Z,10.49
2023-04-24T03:03:42.537Z,10.49
2023-04-24T03:06:10.844Z,10.49
2023-04-24T03:08:40.562Z,10.49
2023-04-24T03:11:08.807Z,10.52
2023-04-24T03:13:37.016Z,10.52
2023-04-24T03:16:05.479Z,10.51
2023-04-24T03:18:33.705Z,10.48
2023-04-24T03:21:01.861Z,10.50
2023-04-24T03:23:30.072Z,10.51
2023-04-24T03:25:59.735Z,10.44
2023-04-24T03:28:28.285Z,10.46
2023-04-24T03:30:56.471Z,10.44
2023-04-24T03:33:24.766Z,10.40
2023-04-24T03:35:53.082Z,10.39
2023-04-24T03:38:21.356Z,10.36
2023-04-24T03:40:49.665Z,10.31
2023-04-24T03:43:19.136Z,10.26
2023-04-24T03:45:47.551Z,10.19
2023-04-24T03:48:15.950Z,10.14
2023-04-24T03:50:44.198Z,10.13
2023-04-24T03:53:12.400Z,10.06
2023-04-24T03:55:40.648Z,10.02
2023-04-24T03:58:08.819Z,10.06
2023-04-24T04:00:38.701Z,10.07
2023-04-24T04:03:07.138Z,10.05
2023-04-24T04:05:35.521Z,10.06
2023-04-24T04:08:03.731Z,10.09
2023-04-24T04:10:32.046Z,10.08
2023-04-24T04:13:01.140Z,10.06
2023-04-24T04:15:29.418Z,10.02
2023-04-24T04:17:59.055Z,9.97
2023-04-24T04:20:27.406Z,9.98
2023-04-24T04:22:55.639Z,9.95
2023-04-24T04:25:24.232Z,9.95
2023-04-24T04:27:53.337Z,9.90
2023-04-24T04:30:22.159Z,9.87
2023-04-24T04:32:50.353Z,9.79
2023-04-24T04:35:21.821Z,9.85
2023-04-24T04:37:52.675Z,9.81
2023-04-24T04:40:20.891Z,9.87
2023-04-24T04:42:48.988Z,9.88
2023-04-24T04:45:18.015Z,9.87
2023-04-24T04:47:46.567Z,9.84
2023-04-24T04:50:14.901Z,9.81
2023-04-24T04:52:44.637Z,9.70
2023-04-24T04:55:14.407Z,9.60
2023-04-24T04:57:42.690Z,9.46
2023-04-24T05:00:12.914Z,9.31
2023-04-24T05:02:41.612Z,9.20
2023-04-24T05:05:11.003Z,9.08
2023-04-24T05:07:39.551Z,8.96
2023-04-24T05:10:10.508Z,8.88
2023-04-24T05:12:38.598Z,8.81
2023-04-24T05:15:09.900Z,8.77
2023-04-24T05:17:38.225Z,8.75
2023-04-24T05:20:08.027Z,8.67
2023-04-24T05:22:36.935Z,8.57
2023-04-24T05:25:05.363Z,8.48
2023-04-24T05:27:35.003Z,8.35
2023-04-24T05:30:03.986Z,8.33
2023-04-24T05:32:32.205Z,8.24
2023-04-24T05:35:00.462Z,8.16
2023-04-24T05:37:28.694Z,8.02
2023-04-24T05:39:57.194Z,7.97
2023-04-24T05:42:26.011Z,7.94
2023-04-24T05:44:57.948Z,7.96
2023-04-24T05:47:27.475Z,7.94
2023-04-24T05:49:55.816Z,7.85
2023-04-24T05:52:24.066Z,7.78
2023-04-24T05:54:52.319Z,7.74
2023-04-24T05:57:20.916Z,7.72
2023-04-24T05:59:49.657Z,7.71
2023-04-24T06:02:19.731Z,7.70
2023-04-24T06:04:48.355Z,7.80
2023-04-24T06:07:16.840Z,7.82
2023-04-24T06:09:45.047Z,7.88
2023-04-24T06:12:13.350Z,7.88
2023-04-24T06:14:42.242Z,7.84
2023-04-24T06:17:10.594Z,7.83
2023-04-24T06:19:40.311Z,7.77
2023-04-24T06:22:10.932Z,7.75
2023-04-24T06:24:39.484Z,7.75
2023-04-24T06:27:07.742Z,7.76
2023-04-24T06:29:36.169Z,7.74
2023-04-24T06:32:04.480Z,7.73
2023-04-24T06:34:33.795Z,7.60
2023-04-24T06:37:03.453Z,7.55
2023-04-24T06:39:31.690Z,7.50
2023-04-24T06:41:59.939Z,7.49
2023-04-24T06:44:28.170Z,7.46
2023-04-24T06:46:56.364Z,7.43
2023-04-24T06:49:24.739Z,7.43
2023-04-24T06:51:53.012Z,7.44
2023-04-24T06:54:22.679Z,7.38
2023-04-24T06:56:52.530Z,7.41
2023-04-24T06:59:21.148Z,7.40
2023-04-24T07:01:49.647Z,7.40
2023-04-24T07:04:18.186Z,7.37
2023-04-24T07:06:48.154Z,7.33
2023-04-24T07:09:17.206Z,7.27
2023-04-24T07:11:47.051Z,7.25
2023-04-24T07:14:15.605Z,7.22
2023-04-24T07:16:44.513Z,7.23
2023-04-24T07:19:12.824Z,7.27
2023-04-24T07:21:41.089Z,7.32
2023-04-24T07:24:11.940Z,7.38
2023-04-24T07:26:41.239Z,7.46
2023-04-24T07:29:10.947Z,7.48
2023-04-24T07:31:39.229Z,7.50
2023-04-24T07:34:07.488Z,7.51
2023-04-24T07:36:35.627Z,7.50
2023-04-24T07:39:03.832Z,7.50
2023-04-24T07:41:31.993Z,7.48
2023-04-24T07:44:00.913Z,7.49
2023-04-24T07:46:32.879Z,7.54
2023-04-24T07:49:12.470Z,7.58
2023-04-24T07:51:42.910Z,7.60
2023-04-24T07:54:11.389Z,7.59
2023-04-24T07:56:40.522Z,7.60
2023-04-24T07:59:08.804Z,7.63
2023-04-24T08:01:38.405Z,7.64
2023-04-24T08:04:07.261Z,7.63
2023-04-24T08:06:35.847Z,7.67
2023-04-24T08:09:05.058Z,7.69
2023-04-24T08:11:34.006Z,7.69
2023-04-24T08:14:02.239Z,7.73
2023-04-24T08:16:30.651Z,7.77
2023-04-24T08:19:00.355Z,7.75
2023-04-24T08:21:28.620Z,7.74
2023-04-24T08:23:56.993Z,7.83
2023-04-24T08:26:25.827Z,7.88
2023-04-24T08:28:54.285Z,7.93
2023-04-24T08:31:23.905Z,8.02
2023-04-24T08:33:52.148Z,8.12
2023-04-24T08:36:21.746Z,8.18
2023-04-24T08:38:50.012Z,8.23
2023-04-24T08:41:19.990Z,8.25
2023-04-24T08:43:49.519Z,8.24
2023-04-24T08:46:18.703Z,8.27
2023-04-24T08:48:47.442Z,8.34
2023-04-24T08:51:15.956Z,8.34
2023-04-24T08:53:46.982Z,8.42
2023-04-24T08:56:16.466Z,8.44
2023-04-24T08:58:45.606Z,8.52
2023-04-24T09:01:14.737Z,8.56
2023-04-24T09:03:43.515Z,8.51
2023-04-24T09:06:13.572Z,8.52
2023-04-24T09:08:43.539Z,8.58
2023-04-24T09:11:14.322Z,8.58
2023-04-24T09:13:43.457Z,8.66
2023-04-24T09:16:11.617Z,8.66
2023-04-24T09:18:39.765Z,8.72
2023-04-24T09:21:11.062Z,8.80
2023-04-24T09:23:39.493Z,8.80
2023-04-24T09:26:08.165Z,8.81
2023-04-24T09:28:40.103Z,8.84
2023-04-24T09:31:11.559Z,8.83
2023-04-24T09:33:39.604Z,8.83
2023-04-24T09:36:08.552Z,8.85
2023-04-24T09:38:37.948Z,8.87
2023-04-24T09:41:08.660Z,8.89
2023-04-24T09:43:38.786Z,8.94
2023-04-24T09:46:08.755Z,8.99
2023-04-24T09:48:38.601Z,9.03
2023-04-24T09:51:11.851Z,9.09
2023-04-24T09:53:41.497Z,9.14
2023-04-24T09:56:10.745Z,9.25
2023-04-24T09:58:40.694Z,9.31
2023-04-24T10:01:09.255Z,9.37
2023-04-24T10:03:37.675Z,9.42
2023-04-24T10:06:10.375Z,9.50
2023-04-24T10:08:39.515Z,9.45
2023-04-24T10:11:09.178Z,9.46
2023-04-24T10:13:39.590Z,9.49
2023-04-24T10:16:08.640Z,9.56
2023-04-24T10:18:37.597Z,9.60
2023-04-24T10:21:06.011Z,9.68
2023-04-24T10:23:34.818Z,9.65
2023-04-24T10:26:03.239Z,9.69
2023-04-24T10:28:33.135Z,9.78
2023-04-24T10:31:03.440Z,9.84
2023-04-24T10:33:32.866Z,9.92
2023-04-24T10:36:02.019Z,9.99
2023-04-24T10:38:31.952Z,9.95
2023-04-24T10:41:14.011Z,9.96
2023-04-24T10:43:42.898Z,10.05
2023-04-24T10:46:12.589Z,10.10
2023-04-24T10:48:45.964Z,10.14
2023-04-24T10:51:15.638Z,10.22
2023-04-24T10:53:43.891Z,10.30
2023-04-24T10:56:12.177Z,10.31
2023-04-24T10:58:45.735Z,10.35
2023-04-24T11:01:28.612Z,10.37
2023-04-24T11:03:58.624Z,10.44
2023-04-24T11:06:34.536Z,10.41
2023-04-24T11:09:07.249Z,10.36
2023-04-24T11:11:36.626Z,10.36
2023-04-24T11:14:09.017Z,10.35
2023-04-24T11:16:45.558Z,10.29
2023-04-24T11:19:23.155Z,10.18
2023-04-24T11:21:57.676Z,10.18
2023-04-24T11:24:31.909Z,10.18
2023-04-24T11:27:02.843Z,10.08
2023-04-24T11:29:45.225Z,10.13
2023-04-24T11:32:33.375Z,10.14
2023-04-24T11:35:03.475Z,10.17
2023-04-24T11:37:37.525Z,10.20
2023-04-24T11:40:08.010Z,10.24
2023-04-24T11:42:37.087Z,10.29
2023-04-24T11:45:10.721Z,10.41
2023-04-24T11:47:40.513Z,10.47
2023-04-24T11:50:10.778Z,10.47
2023-04-24T11:52:40.457Z,10.50
2023-04-24T11:55:10.706Z,10.64
2023-04-24T11:57:39.067Z,10.72
2023-04-24T12:00:09.450Z,10.87
2023-04-24T12:02:40.300Z,11.09
2023-04-24T12:05:09.831Z,11.26
2023-04-24T12:07:44.442Z,11.24
2023-04-24T12:10:12.758Z,11.14
2023-04-24T12:12:41.103Z,11.05
2023-04-24T12:15:10.672Z,10.93
2023-04-24T12:17:43.940Z,10.82
2023-04-24T12:20:13.777Z,10.78
2023-04-24T12:22:54.458Z,10.77
2023-04-24T12:25:23.998Z,10.84
2023-04-24T12:27:56.963Z,10.73
2023-04-24T12:30:30.604Z,10.70
2023-04-24T12:33:02.497Z,10.72
2023-04-24T12:35:34.716Z,10.67
2023-04-24T12:38:09.187Z,10.75
2023-04-24T12:40:37.478Z,10.85
2023-04-24T12:43:16.637Z,10.81
2023-04-24T12:45:46.035Z,10.79
2023-04-24T12:48:16.354Z,10.79
2023-04-24T12:50:46.421Z,10.82
2023-04-24T12:53:15.684Z,10.82
2023-04-24T12:55:45.297Z,10.88
2023-04-24T12:58:13.481Z,10.94
2023-04-24T13:00:44.636Z,11.03
2023-04-24T13:03:13.310Z,11.02
2023-04-24T13:05:43.337Z,11.08
2023-04-24T13:08:11.592Z,11.07
2023-04-24T13:10:39.814Z,10.97
2023-04-24T13:13:08.467Z,10.94
2023-04-24T13:15:36.746Z,10.87
2023-04-24T13:18:05.170Z,10.75
2023-04-24T13:20:36.575Z,10.75
2023-04-24T13:23:06.340Z,10.79
2023-04-24T13:25:38.535Z,10.74
2023-04-24T13:28:06.862Z,10.78
2023-04-24T13:30:35.575Z,10.80
2023-04-24T13:33:04.148Z,10.78
2023-04-24T13:35:33.692Z,10.73
2023-04-24T13:38:04.506Z,10.71
2023-04-24T13:40:34.116Z,10.58
2023-04-24T13:43:02.565Z,10.53
2023-04-24T13:45:30.814Z,10.56
2023-04-24T13:47:59.228Z,10.54
2023-04-24T13:50:27.752Z,10.57
2023-04-24T13:52:57.782Z,10.60
2023-04-24T13:55:25.999Z,10.66
2023-04-24T13:57:56.228Z,10.72
2023-04-24T14:00:24.683Z,10.73
2023-04-24T14:02:53.130Z,10.68
2023-04-24T14:05:22.859Z,10.70
2023-04-24T14:07:51.998Z,10.75
2023-04-24T14:10:20.532Z,10.72
2023-04-24T14:12:49.377Z,10.72
2023-04-24T14:15:19.125Z,10.70
2023-04-24T14:17:47.528Z,10.74
2023-04-24T14:20:15.724Z,10.78
2023-04-24T14:22:43.953Z,10.83
2023-04-24T14:25:12.273Z,10.87
2023-04-24T14:27:41.160Z,10.93
2023-04-24T14:30:10.430Z,10.95
2023-04-24T14:32:41.028Z,11.03
2023-04-24T14:35:09.995Z,11.09
2023-04-24T14:37:38.768Z,11.08
2023-04-24T14:40:21.222Z,11.04
2023-04-24T14:42:58.278Z,10.95
2023-04-24T14:45:26.661Z,10.93
2023-04-24T14:47:57.444Z,10.86
2023-04-24T14:50:29.017Z,10.82
2023-04-24T14:52:58.753Z,10.85
2023-04-24T14:55:27.253Z,10.87
2023-04-24T14:57:55.923Z,10.91
2023-04-24T15:00:25.527Z,10.94
2023-04-24T15:02:56.477Z,10.92
2023-04-24T15:05:25.902Z,10.96
2023-04-24T15:07:54.612Z,10.99
2023-04-24T15:10:26.668Z,11.00
2023-04-24T15:12:55.170Z,11.02
2023-04-24T15:15:23.341Z,11.02
2023-04-24T15:17:51.604Z,11.03
2023-04-24T15:20:21.386Z,11.05
2023-04-24T15:22:49.748Z,11.08
2023-04-24T15:25:17.934Z,11.07
2023-04-24T15:27:47.287Z,11.09
2023-04-24T15:30:16.655Z,11.14
2023-04-24T15:32:45.008Z,11.22
2023-04-24T15:35:13.134Z,11.21
2023-04-24T15:37:43.199Z,11.22
2023-04-24T15:40:14.477Z,11.23
2023-04-24T15:42:44.913Z,11.19
2023-04-24T15:45:13.948Z,11.18
2023-04-24T15:47:42.456Z,11.16
2023-04-24T15:50:14.471Z,11.19
2023-04-24T15:52:45.186Z,11.22
2023-04-24T15:55:14.012Z,11.21
2023-04-24T15:57:42.437Z,11.23
2023-04-24T16:00:11.849Z,11.19
2023-04-24T16:02:40.318Z,11.17
2023-04-24T16:05:09.790Z,11.16
2023-04-24T16:07:39.836Z,11.16
2023-04-24T16:10:10.735Z,11.10
2023-04-24T16:12:38.961Z,11.02
2023-04-24T16:15:08.474Z,10.95
2023-04-24T16:17:36.691Z,10.95
2023-04-24T16:20:05.639Z,10.98
2023-04-24T16:22:33.811Z,11.01
2023-04-24T16:25:01.970Z,11.00
2023-04-24T16:27:31.806Z,11.04
2023-04-24T16:30:00.874Z,11.01
2023-04-24T16:32:30.623Z,11.03
2023-04-24T16:34:58.948Z,11.02
2023-04-24T16:37:27.339Z,10.97
2023-04-24T16:39:56.144Z,10.97
2023-04-24T16:42:24.491Z,10.95
2023-04-24T16:44:54.261Z,10.89
2023-04-24T16:47:22.721Z,10.82
2023-04-24T16:49:51.236Z,10.85
2023-04-24T16:52:19.940Z,10.84
2023-04-24T16:54:48.382Z,10.85
2023-04-24T16:57:17.706Z,10.85
2023-04-24T16:59:45.861Z,10.81
2023-04-24T17:02:15.504Z,10.69
2023-04-24T17:04:43.824Z,10.63
2023-04-24T17:07:12.136Z,10.54
2023-04-24T17:09:40.359Z,10.45
2023-04-24T17:12:08.755Z,10.49
2023-04-24T17:14:36.989Z,10.53
2023-04-24T17:17:05.350Z,10.56
2023-04-24T17:19:35.024Z,10.55
2023-04-24T17:22:05.977Z,10.58
2023-04-24T17:24:34.372Z,10.55
2023-04-24T17:27:13.989Z,10.54
2023-04-24T17:29:43.811Z,10.53
2023-04-24T17:32:12.193Z,10.55
2023-04-24T17:34:41.848Z,10.60
2023-04-24T17:37:10.082Z,10.61
2023-04-24T17:39:38.216Z,10.59
2023-04-24T17:42:06.678Z,10.56
2023-04-24T17:44:34.881Z,10.53
2023-04-24T17:47:04.258Z,10.49
2023-04-24T17:49:32.880Z,10.38
2023-04-24T17:52:02.448Z,10.33
2023-04-24T17:54:30.739Z,10.28
2023-04-24T17:56:59.050Z,10.23
2023-04-24T17:59:27.383Z,10.19
2023-04-24T18:01:55.619Z,10.16
2023-04-24T18:04:24.126Z,10.08
2023-04-24T18:06:52.439Z,10.04
2023-04-24T18:09:22.043Z,10.01
2023-04-24T18:11:50.298Z,9.97
2023-04-24T18:14:18.476Z,9.92
2023-04-24T18:16:46.689Z,9.88
2023-04-24T18:19:14.912Z,9.86
2023-04-24T18:21:43.108Z,9.82
2023-04-24T18:24:11.504Z,9.78
2023-04-24T18:26:41.224Z,9.78
2023-04-24T18:29:09.395Z,9.78
2023-04-24T18:31:37.803Z,9.78
2023-04-24T18:34:06.225Z,9.72
2023-04-24T18:36:34.518Z,9.73
2023-04-24T18:39:02.731Z,9.71
2023-04-24T18:41:30.935Z,9.66
2023-04-24T18:44:00.538Z,9.65
2023-04-24T18:46:28.848Z,9.64
2023-04-24T18:48:57.024Z,9.64
2023-04-24T18:51:25.430Z,9.64
2023-04-24T18:53:53.880Z,9.64
2023-04-24T18:56:21.972Z,9.63
2023-04-24T18:58:50.520Z,9.62
2023-04-24T19:01:20.634Z,9.60
2023-04-24T19:03:49.214Z,9.59
2023-04-24T19:06:17.590Z,9.52
2023-04-24T19:08:47.660Z,9.50
2023-04-24T19:11:16.200Z,9.47
2023-04-24T19:13:44.432Z,9.43
2023-04-24T19:16:12.975Z,9.39
2023-04-24T19:18:42.497Z,9.36
2023-04-24T19:21:10.784Z,9.31
2023-04-24T19:23:41.150Z,9.31
2023-04-24T19:26:09.440Z,9.27
2023-04-24T19:28:39.195Z,9.26
2023-04-24T19:31:07.608Z,9.20
2023-04-24T19:33:35.846Z,9.17
2023-04-24T19:36:05.817Z,9.14
2023-04-24T19:38:34.346Z,9.10
2023-04-24T19:41:02.806Z,9.07
2023-04-24T19:43:31.090Z,9.06
2023-04-24T19:45:59.369Z,9.04
2023-04-24T19:48:31.178Z,9.01
2023-04-24T19:50:59.462Z,8.98
2023-04-24T19:53:29.382Z,8.96
2023-04-24T19:55:58.118Z,8.94
2023-04-24T19:58:26.340Z,8.91
2023-04-24T20:00:54.658Z,8.90
2023-04-24T20:03:32.882Z,8.87
2023-04-24T20:06:01.977Z,8.81
2023-04-24T20:08:31.715Z,8.78
2023-04-24T20:11:01.002Z,8.76
2023-04-24T20:13:32.022Z,8.74
2023-04-24T20:16:00.333Z,8.71
2023-04-24T20:18:28.634Z,8.68
2023-04-24T20:21:00.190Z,8.66
2023-04-24T20:23:28.571Z,8.63
2023-04-24T20:25:59.216Z,8.61
2023-04-24T20:28:28.023Z,8.56
2023-04-24T20:30:56.414Z,8.52
2023-04-24T20:33:25.883Z,8.50
2023-04-24T20:35:57.682Z,8.47
2023-04-24T20:38:25.946Z,8.43
2023-04-24T20:40:58.049Z,8.42
2023-04-24T20:43:29.277Z,8.42
2023-04-24T20:45:58.575Z,8.41
2023-04-24T20:48:27.461Z,8.40
2023-04-24T20:50:56.107Z,8.39
2023-04-24T20:53:25.090Z,8.36
2023-04-24T20:55:53.508Z,8.34
2023-04-24T20:58:22.379Z,8.28
2023-04-24T21:00:52.921Z,8.23
2023-04-24T21:03:21.714Z,8.22
2023-04-24T21:05:50.134Z,8.19
2023-04-24T21:08:18.512Z,8.17
2023-04-24T21:10:46.773Z,8.14
2023-04-24T21:13:15.078Z,8.12
2023-04-24T21:15:43.318Z,8.12
2023-04-24T21:18:13.103Z,8.08
2023-04-24T21:20:41.451Z,8.04
2023-04-24T21:23:09.690Z,8.03
2023-04-24T21:25:38.842Z,8.04
2023-04-24T21:28:07.457Z,8.02
2023-04-24T21:30:35.687Z,8.01
2023-04-24T21:33:04.101Z,7.99
2023-04-24T21:35:34.402Z,8.00
2023-04-24T21:38:02.504Z,7.98
2023-04-24T21:40:31.024Z,7.98
2023-04-24T21:42:59.435Z,7.96
2023-04-24T21:45:27.848Z,7.99
2023-04-24T21:47:56.263Z,7.97
2023-04-24T21:50:24.620Z,7.99
2023-04-24T21:52:54.325Z,8.04
2023-04-24T21:55:22.603Z,8.05
2023-04-24T21:57:51.190Z,8.10
2023-04-24T22:00:19.616Z,8.14
2023-04-24T22:02:47.981Z,8.20
2023-04-24T22:05:18.530Z,8.25
2023-04-24T22:07:48.430Z,8.30
2023-04-24T22:10:20.283Z,8.34
2023-04-24T22:12:48.543Z,8.38
2023-04-24T22:15:16.854Z,8.40
2023-04-24T22:17:45.080Z,8.45
2023-04-24T22:20:14.273Z,8.47
2023-04-24T22:22:42.645Z,8.48
2023-04-24T22:25:11.539Z,8.50
2023-04-24T22:27:41.273Z,8.50
2023-04-24T22:30:10.671Z,8.46
2023-04-24T22:32:39.325Z,8.45
2023-04-24T22:35:09.517Z,8.43
2023-04-24T22:37:37.738Z,8.41
2023-04-24T22:40:08.658Z,8.41
2023-04-24T22:42:37.077Z,8.35
2023-04-24T22:45:11.469Z,8.37
2023-04-24T22:47:39.747Z,8.38
2023-04-24T22:50:10.748Z,8.40
2023-04-24T22:52:41.335Z,8.40
2023-04-24T22:55:10.977Z,8.40
2023-04-24T22:57:39.543Z,8.40
2023-04-24T23:00:12.884Z,8.42
2023-04-24T23:02:42.539Z,8.38
2023-04-24T23:05:11.916Z,8.38
2023-04-24T23:07:40.165Z,8.35
2023-04-24T23:10:09.118Z,8.34
2023-04-24T23:12:37.344Z,8.36
2023-04-24T23:15:06.388Z,8.34
2023-04-24T23:17:35.998Z,8.33
2023-04-24T23:20:04.846Z,8.31
2023-04-24T23:22:33.795Z,8.27
2023-04-24T23:25:02.504Z,8.25
2023-04-24T23:27:30.720Z,8.26
2023-04-24T23:29:59.026Z,8.24
2023-04-24T23:32:27.270Z,8.23
2023-04-24T23:34:57.203Z,8.23
2023-04-24T23:37:25.974Z,8.23
2023-04-24T23:39:54.311Z,8.24
2023-04-24T23:42:22.486Z,8.24
2023-04-24T23:44:50.731Z,8.25
2023-04-24T23:47:18.979Z,8.24
2023-04-24T23:49:47.118Z,8.24
2023-04-24T23:52:16.831Z,8.18
2023-04-24T23:54:45.171Z,8.11
2023-04-24T23:57:13.358Z,8.06
2023-04-24T23:59:41.671Z,7.96
